createdAt,value
2022-10-01T00:01:07.927Z,15.49
2022-10-01T00:03:36.048Z,15.38
2022-10-01T00:06:22.804Z,14.36
2022-10-01T00:08:50.779Z,14.20
2022-10-01T00:11:26.049Z,14.42
2022-10-01T00:13:54.372Z,14.52
2022-10-01T00:16:25.443Z,14.56
2022-10-01T00:18:56.371Z,14.51
2022-10-01T00:21:25.547Z,14.52
2022-10-01T00:23:56.469Z,14.61
2022-10-01T00:26:27.356Z,14.51
2022-10-01T00:28:57.187Z,14.57
2022-10-01T00:31:24.454Z,14.40
2022-10-01T00:33:56.089Z,14.79
2022-10-01T00:36:22.630Z,14.79
2022-10-01T00:38:49.219Z,14.81
2022-10-01T00:41:17.297Z,14.45
2022-10-01T00:43:47.163Z,14.88
2022-10-01T00:46:17.512Z,14.97
2022-10-01T00:48:58.287Z,14.87
2022-10-01T00:51:35.648Z,14.77
2022-10-01T00:54:15.288Z,14.85
2022-10-01T00:56:44.091Z,14.95
2022-10-01T00:59:12.213Z,14.96
2022-10-01T01:01:39.439Z,15.08
2022-10-01T01:04:16.597Z,15.14
2022-10-01T01:06:55.919Z,14.89
2022-10-01T01:09:26.707Z,15.08
2022-10-01T01:12:18.274Z,15.08
2022-10-01T01:15:04.810Z,15.08
2022-10-01T01:17:42.138Z,14.89
2022-10-01T01:20:17.365Z,15.04
2022-10-01T01:22:53.770Z,14.98
2022-10-01T01:25:29.124Z,15.01
2022-10-01T01:27:58.728Z,14.93
2022-10-01T01:30:26.609Z,14.94
2022-10-01T01:32:56.105Z,14.94
2022-10-01T01:36:09.299Z,14.90
2022-10-01T01:38:43.025Z,14.81
2022-10-01T01:41:12.553Z,14.52
2022-10-01T01:43:44.068Z,14.38
2022-10-01T01:46:12.694Z,14.69
2022-10-01T01:48:41.841Z,14.26
2022-10-01T01:51:24.705Z,14.55
2022-10-01T01:53:51.900Z,14.56
2022-10-01T01:56:18.457Z,14.19
2022-10-01T01:58:46.332Z,14.51
2022-10-01T02:01:51.842Z,14.54
2022-10-01T02:04:24.200Z,14.51
2022-10-01T02:07:18.491Z,14.45
2022-10-01T02:09:54.403Z,14.52
2022-10-01T02:12:45.064Z,14.50
2022-10-01T02:15:18.243Z,14.50
2022-10-01T02:17:44.741Z,14.48
2022-10-01T02:20:18.807Z,14.48
2022-10-01T02:22:54.168Z,14.37
2022-10-01T02:25:27.038Z,14.42
2022-10-01T02:28:02.652Z,14.35
2022-10-01T02:30:33.254Z,13.84
2022-10-01T02:33:03.638Z,13.33
2022-10-01T02:35:33.866Z,13.54
2022-10-01T02:38:04.297Z,13.67
2022-10-01T02:40:34.901Z,13.62
2022-10-01T02:43:09.294Z,13.73
2022-10-01T02:45:39.351Z,13.71
2022-10-01T02:48:11.888Z,13.65
2022-10-01T02:50:48.415Z,13.64
2022-10-01T02:53:27.487Z,13.49
2022-10-01T02:55:56.600Z,13.67
2022-10-01T02:58:23.437Z,13.63
2022-10-01T03:00:49.990Z,13.77
2022-10-01T03:03:16.565Z,13.21
2022-10-01T03:05:43.139Z,13.75
2022-10-01T03:08:09.679Z,13.16
2022-10-01T03:10:36.265Z,13.40
2022-10-01T03:13:02.889Z,13.73
2022-10-01T03:15:29.566Z,13.80
2022-10-01T03:17:56.202Z,13.67
2022-10-01T03:20:22.780Z,13.87
2022-10-01T03:22:49.660Z,13.94
2022-10-01T03:25:17.217Z,14.04
2022-10-01T03:27:43.991Z,14.02
2022-10-01T03:30:11.341Z,14.13
2022-10-01T03:32:38.007Z,14.16
2022-10-01T03:35:05.300Z,14.08
2022-10-01T03:37:31.901Z,14.12
2022-10-01T03:39:58.453Z,13.35
2022-10-01T03:42:25.092Z,13.99
2022-10-01T03:44:52.094Z,13.92
2022-10-01T03:47:18.691Z,13.88
2022-10-01T03:49:45.224Z,13.82
2022-10-01T03:52:11.801Z,13.74
2022-10-01T03:54:39.420Z,13.01
2022-10-01T03:57:06.819Z,13.58
2022-10-01T03:59:33.359Z,13.52
2022-10-01T04:02:00.036Z,13.62
2022-10-01T04:04:29.059Z,13.28
2022-10-01T04:06:55.679Z,13.03
2022-10-01T04:09:23.681Z,13.54
2022-10-01T04:11:50.567Z,13.23
2022-10-01T04:14:17.190Z,13.49
2022-10-01T04:16:46.627Z,13.38
2022-10-01T04:19:13.164Z,13.42
2022-10-01T04:21:39.755Z,13.81
2022-10-01T04:24:06.537Z,13.91
2022-10-01T04:26:33.145Z,13.80
2022-10-01T04:28:59.744Z,13.22
2022-10-01T04:31:26.581Z,13.09
2022-10-01T04:33:55.203Z,13.31
2022-10-01T04:36:23.821Z,13.50
2022-10-01T04:38:57.961Z,13.69
2022-10-01T04:41:30.404Z,13.22
2022-10-01T04:43:59.373Z,13.95
2022-10-01T04:46:26.219Z,13.85
2022-10-01T04:48:52.812Z,13.66
2022-10-01T04:51:20.200Z,14.12
2022-10-01T04:53:47.128Z,14.36
2022-10-01T04:56:14.307Z,13.41
2022-10-01T04:58:41.317Z,13.67
2022-10-01T05:01:07.963Z,13.33
2022-10-01T05:03:34.739Z,13.34
2022-10-01T05:06:01.932Z,14.18
2022-10-01T05:08:31.277Z,14.40
2022-10-01T05:10:59.552Z,14.59
2022-10-01T05:13:30.112Z,14.33
2022-10-01T05:15:57.247Z,14.83
2022-10-01T05:18:23.864Z,15.09
2022-10-01T05:20:50.505Z,15.26
2022-10-01T05:23:17.058Z,15.42
2022-10-01T05:25:46.795Z,15.63
2022-10-01T05:28:17.059Z,15.75
2022-10-01T05:30:46.796Z,15.79
2022-10-01T05:33:13.393Z,15.93
2022-10-01T05:35:40.999Z,15.87
2022-10-01T05:38:07.559Z,16.26
2022-10-01T05:40:34.122Z,16.34
2022-10-01T05:43:01.704Z,16.42
2022-10-01T05:45:30.071Z,16.41
2022-10-01T05:48:01.789Z,16.53
2022-10-01T05:50:33.041Z,16.57
2022-10-01T05:53:00.931Z,16.67
2022-10-01T05:55:31.936Z,16.41
2022-10-01T05:58:04.464Z,16.71
2022-10-01T06:00:32.651Z,17.02
2022-10-01T06:03:00.958Z,17.13
2022-10-01T06:05:29.887Z,17.01
2022-10-01T06:07:56.626Z,17.15
2022-10-01T06:10:24.656Z,17.64
2022-10-01T06:12:51.969Z,17.82
2022-10-01T06:15:18.986Z,17.80
2022-10-01T06:17:45.587Z,17.99
2022-10-01T06:20:14.382Z,18.49
2022-10-01T06:22:43.079Z,18.79
2022-10-01T06:25:11.412Z,18.79
2022-10-01T06:27:38.541Z,18.91
2022-10-01T06:30:06.267Z,18.77
2022-10-01T06:32:34.932Z,19.31
2022-10-01T06:35:02.322Z,19.70
2022-10-01T06:37:29.000Z,19.79
2022-10-01T06:39:55.765Z,20.14
2022-10-01T06:42:22.421Z,20.29
2022-10-01T06:44:49.051Z,20.04
2022-10-01T06:47:15.603Z,20.79
2022-10-01T06:49:47.297Z,21.06
2022-10-01T06:52:33.118Z,21.16
2022-10-01T06:55:01.487Z,21.47
2022-10-01T06:57:28.932Z,21.77
2022-10-01T06:59:55.835Z,22.00
2022-10-01T07:02:28.110Z,22.18
2022-10-01T07:05:01.749Z,22.50
2022-10-01T07:07:32.184Z,22.83
2022-10-01T07:09:59.305Z,22.87
2022-10-01T07:12:26.471Z,23.12
2022-10-01T07:14:54.002Z,23.30
2022-10-01T07:17:21.446Z,23.42
2022-10-01T07:19:48.076Z,23.29
2022-10-01T07:22:14.639Z,23.76
2022-10-01T07:24:41.329Z,23.88
2022-10-01T07:27:08.044Z,23.95
2022-10-01T07:29:34.642Z,23.94
2022-10-01T07:32:02.130Z,24.29
2022-10-01T07:34:31.140Z,24.29
2022-10-01T07:36:57.813Z,24.36
2022-10-01T07:39:24.453Z,24.75
2022-10-01T07:41:51.925Z,24.12
2022-10-01T07:44:19.488Z,24.33
2022-10-01T07:46:47.301Z,24.56
2022-10-01T07:49:15.134Z,24.28
2022-10-01T07:51:43.980Z,24.08
2022-10-01T07:54:10.718Z,24.31
2022-10-01T07:56:37.718Z,24.68
2022-10-01T07:59:04.427Z,25.19
2022-10-01T08:01:34.228Z,25.36
2022-10-01T08:04:01.360Z,25.48
2022-10-01T08:06:27.991Z,25.60
2022-10-01T08:08:54.545Z,25.70
2022-10-01T08:11:21.177Z,25.11
2022-10-01T08:13:48.080Z,25.30
2022-10-01T08:16:14.739Z,25.37
2022-10-01T08:18:41.343Z,25.22
2022-10-01T08:21:08.616Z,25.76
2022-10-01T08:23:35.578Z,26.01
2022-10-01T08:26:05.765Z,26.18
2022-10-01T08:28:33.612Z,25.58
2022-10-01T08:31:07.458Z,25.71
2022-10-01T08:33:35.000Z,26.04
2022-10-01T08:36:03.076Z,26.34
2022-10-01T08:38:29.665Z,26.37
2022-10-01T08:40:59.796Z,25.95
2022-10-01T08:43:38.432Z,26.22
2022-10-01T08:46:11.347Z,26.56
2022-10-01T08:48:46.855Z,26.90
2022-10-01T08:51:29.353Z,26.65
2022-10-01T08:54:14.747Z,26.61
2022-10-01T08:56:46.383Z,26.98
2022-10-01T08:59:39.619Z,27.05
2022-10-01T09:02:18.449Z,27.25
2022-10-01T09:04:46.951Z,27.31
2022-10-01T09:07:50.825Z,27.59
2022-10-01T09:10:35.886Z,28.01
2022-10-01T09:13:40.097Z,28.36
2022-10-01T09:16:39.022Z,27.89
2022-10-01T09:19:31.638Z,27.78
2022-10-01T09:22:03.330Z,27.94
2022-10-01T09:24:50.062Z,28.14
2022-10-01T09:27:19.169Z,28.45
2022-10-01T09:30:14.364Z,28.63
2022-10-01T09:32:53.700Z,28.80
2022-10-01T09:35:20.398Z,28.89
2022-10-01T09:37:57.202Z,29.09
2022-10-01T09:40:34.052Z,28.87
2022-10-01T09:43:01.274Z,28.53
2022-10-01T09:45:28.699Z,28.17
2022-10-01T09:48:04.019Z,28.44
2022-10-01T09:50:50.439Z,28.96
2022-10-01T09:53:22.913Z,28.89
2022-10-01T09:55:56.729Z,28.63
2022-10-01T09:58:26.743Z,29.46
2022-10-01T10:00:54.999Z,29.76
2022-10-01T10:03:28.831Z,29.49
2022-10-01T10:05:56.705Z,29.86
2022-10-01T10:08:28.274Z,29.47
2022-10-01T10:11:08.310Z,29.45
2022-10-01T10:13:39.470Z,29.90
2022-10-01T10:16:35.283Z,30.23
2022-10-01T10:19:10.274Z,30.38
2022-10-01T10:21:37.874Z,30.41
2022-10-01T10:24:06.955Z,30.19
2022-10-01T10:26:39.414Z,30.23
2022-10-01T10:29:12.220Z,30.57
2022-10-01T10:31:44.302Z,30.43
2022-10-01T10:34:39.552Z,29.91
2022-10-01T10:37:14.764Z,29.68
2022-10-01T10:39:45.419Z,29.77
2022-10-01T10:42:18.889Z,29.36
2022-10-01T10:44:49.358Z,28.91
2022-10-01T10:47:20.106Z,28.64
2022-10-01T10:50:01.303Z,28.06
2022-10-01T10:52:36.249Z,27.62
2022-10-01T10:55:25.170Z,27.58
2022-10-01T10:57:57.290Z,27.60
2022-10-01T11:00:25.777Z,27.46
2022-10-01T11:02:57.614Z,27.42
2022-10-01T11:05:30.092Z,27.37
2022-10-01T11:08:03.161Z,27.19
2022-10-01T11:10:42.089Z,27.28
2022-10-01T11:13:24.355Z,27.11
2022-10-01T11:16:12.853Z,27.06
2022-10-01T11:18:51.464Z,26.76
2022-10-01T11:21:40.456Z,26.39
2022-10-01T11:24:41.268Z,26.37
2022-10-01T11:27:42.624Z,26.15
2022-10-01T11:30:11.988Z,26.04
2022-10-01T11:32:46.139Z,25.91
2022-10-01T11:35:19.585Z,25.62
2022-10-01T11:37:52.171Z,25.42
2022-10-01T11:40:29.159Z,25.00
2022-10-01T11:43:02.998Z,24.70
2022-10-01T11:45:36.748Z,24.56
2022-10-01T11:48:17.748Z,24.50
2022-10-01T11:50:48.843Z,24.44
2022-10-01T11:53:23.852Z,24.42
2022-10-01T11:56:16.993Z,24.67
2022-10-01T11:58:56.841Z,24.69
2022-10-01T12:01:41.626Z,24.66
2022-10-01T12:04:43.386Z,24.39
2022-10-01T12:07:17.549Z,24.25
2022-10-01T12:10:25.977Z,24.31
2022-10-01T12:13:00.526Z,24.16
2022-10-01T12:15:50.253Z,24.33
2022-10-01T12:18:39.124Z,24.61
2022-10-01T12:21:21.216Z,24.78
2022-10-01T12:23:57.449Z,24.63
2022-10-01T12:26:35.076Z,24.44
2022-10-01T12:29:14.877Z,24.44
2022-10-01T12:32:00.280Z,24.32
2022-10-01T12:34:38.612Z,24.22
2022-10-01T12:37:27.473Z,24.17
2022-10-01T12:40:10.234Z,24.08
2022-10-01T12:43:04.697Z,24.17
2022-10-01T12:46:02.625Z,24.26
2022-10-01T12:48:48.425Z,24.44
2022-10-01T12:51:52.464Z,24.42
2022-10-01T12:54:57.425Z,24.55
2022-10-01T12:57:36.923Z,24.71
2022-10-01T13:00:11.060Z,24.71
2022-10-01T13:03:00.654Z,25.41
2022-10-01T13:05:30.029Z,25.54
2022-10-01T13:08:14.803Z,25.50
2022-10-01T13:10:41.292Z,25.51
2022-10-01T13:13:17.226Z,25.10
2022-10-01T13:15:47.815Z,25.13
2022-10-01T13:18:20.392Z,25.37
2022-10-01T13:21:25.392Z,25.28
2022-10-01T13:24:04.446Z,25.28
2022-10-01T13:26:51.377Z,25.20
2022-10-01T13:29:43.352Z,25.01
2022-10-01T13:32:34.723Z,24.32
2022-10-01T13:35:21.402Z,23.70
2022-10-01T13:37:47.955Z,23.60
2022-10-01T13:40:30.493Z,23.69
2022-10-01T13:43:07.911Z,23.70
2022-10-01T13:45:37.241Z,23.62
2022-10-01T13:48:15.268Z,23.25
2022-10-01T13:51:04.349Z,24.03
2022-10-01T13:53:37.921Z,24.01
2022-10-01T13:56:05.658Z,24.45
2022-10-01T13:58:39.317Z,24.82
2022-10-01T14:01:28.165Z,25.04
2022-10-01T14:04:01.486Z,25.24
2022-10-01T14:06:32.956Z,25.47
2022-10-01T14:09:02.620Z,25.49
2022-10-01T14:11:51.516Z,25.42
2022-10-01T14:14:41.104Z,25.16
2022-10-01T14:17:09.803Z,24.85
2022-10-01T14:19:37.199Z,24.74
2022-10-01T14:22:17.653Z,24.95
2022-10-01T14:25:14.787Z,24.90
2022-10-01T14:28:08.705Z,24.96
2022-10-01T14:30:55.455Z,24.94
2022-10-01T14:33:24.875Z,24.97
2022-10-01T14:36:10.115Z,24.96
2022-10-01T14:38:36.665Z,25.08
2022-10-01T14:41:03.227Z,25.13
2022-10-01T14:43:31.954Z,24.98
2022-10-01T14:45:58.957Z,25.25
2022-10-01T14:48:28.517Z,25.25
2022-10-01T14:51:06.783Z,25.15
2022-10-01T14:53:41.938Z,24.66
2022-10-01T14:56:14.072Z,24.46
2022-10-01T14:58:56.561Z,24.85
2022-10-01T15:01:25.414Z,24.83
2022-10-01T15:03:52.801Z,24.66
2022-10-01T15:06:29.769Z,24.30
2022-10-01T15:09:10.747Z,24.04
2022-10-01T15:11:44.286Z,23.73
2022-10-01T15:14:18.044Z,24.08
2022-10-01T15:16:44.932Z,24.09
2022-10-01T15:19:21.872Z,24.07
2022-10-01T15:21:57.588Z,24.04
2022-10-01T15:24:45.607Z,24.11
2022-10-01T15:27:20.534Z,24.08
2022-10-01T15:29:56.011Z,23.78
2022-10-01T15:32:25.202Z,23.82
2022-10-01T15:34:58.100Z,23.71
2022-10-01T15:37:36.614Z,23.70
2022-10-01T15:40:06.661Z,23.34
2022-10-01T15:42:34.871Z,23.32
2022-10-01T15:45:07.270Z,23.62
2022-10-01T15:47:34.125Z,23.59
2022-10-01T15:50:16.549Z,23.56
2022-10-01T15:53:03.353Z,23.46
2022-10-01T15:55:34.597Z,23.18
2022-10-01T15:58:13.086Z,23.42
2022-10-01T16:00:56.847Z,23.19
2022-10-01T16:03:36.052Z,23.13
2022-10-01T16:06:06.550Z,22.88
2022-10-01T16:08:48.156Z,22.99
2022-10-01T16:11:24.155Z,22.99
2022-10-01T16:13:52.787Z,22.79
2022-10-01T16:16:27.476Z,22.67
2022-10-01T16:18:58.379Z,22.23
2022-10-01T16:21:25.916Z,22.34
2022-10-01T16:23:54.714Z,22.09
2022-10-01T16:26:27.391Z,21.73
2022-10-01T16:29:03.314Z,21.43
2022-10-01T16:31:30.640Z,21.24
2022-10-01T16:33:57.348Z,21.46
2022-10-01T16:36:26.467Z,21.41
2022-10-01T16:38:53.444Z,21.47
2022-10-01T16:41:23.373Z,21.41
2022-10-01T16:43:51.459Z,21.33
2022-10-01T16:46:18.199Z,21.38
2022-10-01T16:48:47.896Z,20.32
2022-10-01T16:51:14.482Z,21.07
2022-10-01T16:53:42.946Z,20.98
2022-10-01T16:56:10.825Z,20.61
2022-10-01T16:58:41.823Z,19.03
2022-10-01T17:01:09.867Z,20.71
2022-10-01T17:03:36.596Z,20.74
2022-10-01T17:06:03.825Z,20.78
2022-10-01T17:08:30.444Z,20.55
2022-10-01T17:11:01.972Z,20.45
2022-10-01T17:13:32.706Z,20.59
2022-10-01T17:16:00.724Z,20.26
2022-10-01T17:18:27.832Z,20.16
2022-10-01T17:20:56.091Z,20.42
2022-10-01T17:23:22.764Z,20.38
2022-10-01T17:25:49.910Z,19.80
2022-10-01T17:28:20.081Z,20.15
2022-10-01T17:30:48.579Z,20.35
2022-10-01T17:33:18.892Z,20.24
2022-10-01T17:35:51.573Z,20.06
2022-10-01T17:38:19.359Z,19.46
2022-10-01T17:40:46.307Z,19.89
2022-10-01T17:43:14.920Z,19.86
2022-10-01T17:45:42.269Z,19.12
2022-10-01T17:48:09.061Z,19.70
2022-10-01T17:50:43.677Z,19.16
2022-10-01T17:53:11.656Z,19.66
2022-10-01T17:55:42.021Z,19.63
2022-10-01T17:58:08.601Z,19.54
2022-10-01T18:00:35.379Z,19.34
2022-10-01T18:03:02.150Z,19.16
2022-10-01T18:05:28.790Z,19.30
2022-10-01T18:07:55.509Z,19.19
2022-10-01T18:10:22.071Z,19.24
2022-10-01T18:12:48.834Z,19.20
2022-10-01T18:15:18.756Z,18.83
2022-10-01T18:17:51.428Z,18.82
2022-10-01T18:20:24.387Z,18.76
2022-10-01T18:22:51.369Z,18.70
2022-10-01T18:25:19.422Z,19.08
2022-10-01T18:27:50.089Z,19.03
2022-10-01T18:30:17.781Z,19.08
2022-10-01T18:32:48.543Z,18.91
2022-10-01T18:35:30.084Z,18.87
2022-10-01T18:38:02.772Z,18.64
2022-10-01T18:40:42.184Z,18.79
2022-10-01T18:43:22.133Z,18.77
2022-10-01T18:46:07.028Z,18.70
2022-10-01T18:48:55.945Z,18.65
2022-10-01T18:51:41.037Z,18.51
2022-10-01T18:54:34.544Z,18.51
2022-10-01T18:57:18.639Z,17.46
2022-10-01T19:00:10.821Z,18.58
2022-10-01T19:02:56.207Z,18.62
2022-10-01T19:05:58.064Z,18.58
2022-10-01T19:08:28.827Z,18.46
2022-10-01T19:11:17.842Z,18.47
2022-10-01T19:13:50.536Z,18.43
2022-10-01T19:16:24.570Z,18.32
2022-10-01T19:19:24.437Z,18.41
2022-10-01T19:21:53.783Z,18.37
2022-10-01T19:24:34.011Z,18.11
2022-10-01T19:27:19.418Z,18.23
2022-10-01T19:29:57.553Z,18.22
2022-10-01T19:32:30.163Z,18.26
2022-10-01T19:35:06.174Z,18.13
2022-10-01T19:37:39.391Z,18.18
2022-10-01T19:40:49.386Z,18.08
2022-10-01T19:43:22.479Z,17.92
2022-10-01T19:45:59.157Z,17.93
2022-10-01T19:48:42.233Z,17.82
2022-10-01T19:51:12.596Z,17.78
2022-10-01T19:53:44.168Z,17.91
2022-10-01T19:56:18.720Z,17.90
2022-10-01T19:58:45.729Z,17.37
2022-10-01T20:01:20.118Z,16.92
2022-10-01T20:03:57.754Z,17.44
2022-10-01T20:06:41.274Z,17.43
2022-10-01T20:09:35.882Z,17.30
2022-10-01T20:12:12.707Z,16.81
2022-10-01T20:15:09.665Z,17.31
2022-10-01T20:18:08.060Z,17.38
2022-10-01T20:20:56.594Z,17.41
2022-10-01T20:23:39.532Z,17.47
2022-10-01T20:26:12.444Z,17.58
2022-10-01T20:28:57.488Z,17.56
2022-10-01T20:31:42.325Z,17.59
2022-10-01T20:34:38.217Z,17.53
2022-10-01T20:37:37.680Z,17.39
2022-10-01T20:40:26.514Z,17.35
2022-10-01T20:43:05.764Z,17.31
2022-10-01T20:45:35.505Z,17.24
2022-10-01T20:48:13.525Z,17.11
2022-10-01T20:50:47.772Z,17.07
2022-10-01T20:53:38.856Z,16.25
2022-10-01T20:56:13.639Z,16.97
2022-10-01T20:58:47.365Z,16.81
2022-10-01T21:01:21.594Z,16.90
2022-10-01T21:04:06.149Z,16.96
2022-10-01T21:06:45.906Z,16.87
2022-10-01T21:09:25.552Z,16.76
2022-10-01T21:12:15.315Z,17.09
2022-10-01T21:14:52.824Z,16.56
2022-10-01T21:17:47.033Z,17.25
2022-10-01T21:20:35.450Z,17.24
2022-10-01T21:23:10.548Z,16.86
2022-10-01T21:25:53.981Z,17.26
2022-10-01T21:28:32.705Z,17.20
2022-10-01T21:31:10.753Z,17.17
2022-10-01T21:33:54.055Z,17.12
2022-10-01T21:37:02.743Z,17.11
2022-10-01T21:39:38.255Z,17.02
2022-10-01T21:42:36.320Z,17.00
2022-10-01T21:45:02.871Z,16.87
2022-10-01T21:47:48.136Z,17.00
2022-10-01T21:50:22.516Z,17.19
2022-10-01T21:53:00.382Z,17.18
2022-10-01T21:55:45.356Z,17.37
2022-10-01T21:58:49.520Z,17.29
2022-10-01T22:01:44.182Z,17.34
2022-10-01T22:04:18.048Z,17.22
2022-10-01T22:07:01.917Z,17.42
2022-10-01T22:09:39.296Z,17.42
2022-10-01T22:12:07.227Z,17.23
2022-10-01T22:14:34.059Z,17.47
2022-10-01T22:17:26.405Z,17.57
2022-10-01T22:19:56.997Z,17.61
2022-10-01T22:22:30.172Z,17.50
2022-10-01T22:25:01.373Z,17.56
2022-10-01T22:27:32.150Z,17.48
2022-10-01T22:30:06.384Z,17.40
2022-10-01T22:32:40.598Z,17.61
2022-10-01T22:35:15.504Z,17.58
2022-10-01T22:38:09.856Z,17.85
2022-10-01T22:40:42.277Z,17.74
2022-10-01T22:43:11.225Z,17.68
2022-10-01T22:46:02.259Z,17.82
2022-10-01T22:48:47.466Z,17.89
2022-10-01T22:51:29.518Z,15.91
2022-10-01T22:54:34.632Z,17.68
2022-10-01T22:57:22.408Z,17.50
2022-10-01T22:59:52.019Z,17.14
2022-10-01T23:02:32.849Z,16.88
2022-10-01T23:05:38.029Z,16.83
2022-10-01T23:08:33.895Z,16.78
2022-10-01T23:11:15.014Z,16.80
2022-10-01T23:14:24.572Z,16.81
2022-10-01T23:17:17.302Z,16.70
2022-10-01T23:20:01.573Z,16.75
2022-10-01T23:22:43.717Z,16.71
2022-10-01T23:25:44.021Z,16.70
2022-10-01T23:28:41.702Z,16.70
2022-10-01T23:31:39.223Z,16.66
2022-10-01T23:34:28.880Z,16.41
2022-10-01T23:37:37.798Z,16.15
2022-10-01T23:40:09.902Z,15.80
2022-10-01T23:42:47.827Z,15.82
2022-10-01T23:45:39.220Z,15.91
2022-10-01T23:48:13.836Z,16.09
2022-10-01T23:50:48.768Z,15.90
2022-10-01T23:53:24.092Z,15.94
2022-10-01T23:56:24.952Z,16.31
2022-10-01T23:59:01.822Z,16.33
